JIA5414 KCLT-KMYR
Flight info
| Callsign | JIA5414 |
|---|---|
| Flight time | 0h 33m |
| Altitude | 19000 |
| Route | KWEEN5 UNJAM DCT |
| Aircraft | CRJ7/M-SDFGIRWY/S |
Departure
| Time | 2026-04-26 01:18 |
|---|---|
| Airport | Charlotte Douglas International Airport (KCLT) |
Arrival
| Time | 2026-04-26 01:51 |
|---|---|
| Airport | Myrtle Beach International Airport (KMYR) |
| Time | Latitude | Longitude | Altitude | Speed | Heading |
|---|---|---|---|---|---|
| 2026-04-26 00:54 | 35.22585 | -80.93952 | 731 ft | 0 kts | 266° |
| 2026-04-26 01:04 | 35.22585 | -80.93954 | 721 ft | 2 kts | 267° |
| 2026-04-26 01:05 | 35.22592 | -80.93982 | 730 ft | 4 kts | 301° |
| 2026-04-26 01:05 | 35.22610 | -80.94006 | 730 ft | 4 kts | 324° |
| 2026-04-26 01:05 | 35.22631 | -80.94010 | 730 ft | 4 kts | 28° |
| 2026-04-26 01:05 | 35.22643 | -80.93985 | 730 ft | 4 kts | 77° |
| 2026-04-26 01:06 | 35.22645 | -80.93969 | 730 ft | 3 kts | 86° |
| 2026-04-26 01:06 | 35.22643 | -80.93995 | 730 ft | 0 kts | 86° |
| 2026-04-26 01:08 | 35.22644 | -80.93986 | 730 ft | 2 kts | 86° |
| 2026-04-26 01:08 | 35.22643 | -80.93957 | 730 ft | 5 kts | 97° |
| 2026-04-26 01:08 | 35.22637 | -80.93911 | 730 ft | 6 kts | 107° |
| 2026-04-26 01:09 | 35.22610 | -80.93865 | 731 ft | 7 kts | 138° |
| 2026-04-26 01:09 | 35.22561 | -80.93843 | 731 ft | 8 kts | 174° |
| 2026-04-26 01:09 | 35.22508 | -80.93824 | 731 ft | 8 kts | 129° |
| 2026-04-26 01:09 | 35.22490 | -80.93766 | 731 ft | 7 kts | 129° |
| 2026-04-26 01:10 | 35.22439 | -80.93749 | 732 ft | 8 kts | 176° |
| 2026-04-26 01:10 | 35.22376 | -80.93744 | 731 ft | 10 kts | 176° |
| 2026-04-26 01:10 | 35.22304 | -80.93738 | 731 ft | 11 kts | 176° |
| 2026-04-26 01:10 | 35.22224 | -80.93731 | 731 ft | 12 kts | 176° |
| 2026-04-26 01:11 | 35.22140 | -80.93724 | 731 ft | 13 kts | 176° |
| 2026-04-26 01:11 | 35.22047 | -80.93716 | 731 ft | 14 kts | 176° |
| 2026-04-26 01:11 | 35.21948 | -80.93708 | 731 ft | 15 kts | 176° |
| 2026-04-26 01:11 | 35.21848 | -80.93700 | 733 ft | 14 kts | 176° |
| 2026-04-26 01:12 | 35.21749 | -80.93691 | 732 ft | 15 kts | 176° |
| 2026-04-26 01:12 | 35.21639 | -80.93682 | 731 ft | 17 kts | 176° |
| 2026-04-26 01:12 | 35.21521 | -80.93672 | 731 ft | 17 kts | 176° |
| 2026-04-26 01:12 | 35.21401 | -80.93662 | 731 ft | 17 kts | 176° |
| 2026-04-26 01:13 | 35.21279 | -80.93650 | 731 ft | 18 kts | 175° |
| 2026-04-26 01:13 | 35.21155 | -80.93638 | 731 ft | 18 kts | 175° |
| 2026-04-26 01:13 | 35.21027 | -80.93628 | 731 ft | 18 kts | 176° |
| 2026-04-26 01:13 | 35.20898 | -80.93618 | 731 ft | 19 kts | 176° |
| 2026-04-26 01:14 | 35.20767 | -80.93607 | 731 ft | 19 kts | 176° |
| 2026-04-26 01:14 | 35.20634 | -80.93595 | 731 ft | 19 kts | 176° |
| 2026-04-26 01:14 | 35.20499 | -80.93584 | 731 ft | 20 kts | 176° |
| 2026-04-26 01:14 | 35.20363 | -80.93572 | 731 ft | 20 kts | 176° |
| 2026-04-26 01:15 | 35.20224 | -80.93561 | 731 ft | 20 kts | 176° |
| 2026-04-26 01:15 | 35.20116 | -80.93536 | 731 ft | 10 kts | 136° |
| 2026-04-26 01:15 | 35.20110 | -80.93526 | 731 ft | 0 kts | 122° |
| 2026-04-26 01:16 | 35.20109 | -80.93525 | 731 ft | 0 kts | 122° |
| 2026-04-26 01:16 | 35.20106 | -80.93516 | 731 ft | 3 kts | 111° |
| 2026-04-26 01:16 | 35.20104 | -80.93473 | 732 ft | 7 kts | 88° |
| 2026-04-26 01:16 | 35.20122 | -80.93418 | 732 ft | 7 kts | 17° |
| 2026-04-26 01:17 | 35.20185 | -80.93424 | 733 ft | 24 kts | 355° |
| 2026-04-26 01:17 | 35.20615 | -80.93457 | 734 ft | 99 kts | 356° |
| 2026-04-26 01:17 | 35.21498 | -80.93523 | 745 ft | 154 kts | 358° |
| 2026-04-26 01:17 | 35.22627 | -80.93566 | 1312 ft | 163 kts | 2° |
| 2026-04-26 01:18 | 35.23733 | -80.93357 | 2118 ft | 163 kts | 14° |
| 2026-04-26 01:18 | 35.24887 | -80.92879 | 2408 ft | 189 kts | 18° |
| 2026-04-26 01:18 | 35.26118 | -80.92275 | 3005 ft | 195 kts | 19° |
| 2026-04-26 01:18 | 35.27486 | -80.91634 | 3221 ft | 226 kts | 18° |
| 2026-04-26 01:19 | 35.29045 | -80.90939 | 3561 ft | 249 kts | 19° |
| 2026-04-26 01:19 | 35.30501 | -80.89686 | 4081 ft | 269 kts | 53° |
| 2026-04-26 01:19 | 35.31171 | -80.87526 | 4707 ft | 279 kts | 88° |
| 2026-04-26 01:19 | 35.30817 | -80.85215 | 5483 ft | 278 kts | 114° |
| 2026-04-26 01:20 | 35.30074 | -80.83025 | 6296 ft | 281 kts | 117° |
| 2026-04-26 01:20 | 35.29284 | -80.80818 | 7075 ft | 284 kts | 119° |
| 2026-04-26 01:20 | 35.28089 | -80.78966 | 7799 ft | 276 kts | 151° |
| 2026-04-26 01:20 | 35.26320 | -80.78251 | 8577 ft | 268 kts | 179° |
| 2026-04-26 01:21 | 35.24455 | -80.78156 | 9353 ft | 269 kts | 182° |
| 2026-04-26 01:21 | 35.22579 | -80.78155 | 10088 ft | 270 kts | 187° |
| 2026-04-26 01:21 | 35.20673 | -80.78487 | 10457 ft | 286 kts | 194° |
| 2026-04-26 01:21 | 35.18667 | -80.78985 | 10795 ft | 302 kts | 194° |
| 2026-04-26 01:22 | 35.16571 | -80.79502 | 11315 ft | 311 kts | 194° |
| 2026-04-26 01:22 | 35.14474 | -80.79947 | 11945 ft | 316 kts | 192° |
| 2026-04-26 01:22 | 35.12285 | -80.80347 | 12605 ft | 320 kts | 192° |
| 2026-04-26 01:22 | 35.10066 | -80.80741 | 13274 ft | 324 kts | 192° |
| 2026-04-26 01:23 | 35.07814 | -80.81144 | 13913 ft | 329 kts | 192° |
| 2026-04-26 01:23 | 35.05567 | -80.81551 | 14470 ft | 334 kts | 192° |
| 2026-04-26 01:23 | 35.03250 | -80.81969 | 15031 ft | 339 kts | 192° |
| 2026-04-26 01:23 | 35.00904 | -80.82394 | 15582 ft | 343 kts | 192° |
| 2026-04-26 01:24 | 34.98527 | -80.82822 | 16113 ft | 348 kts | 192° |
| 2026-04-26 01:24 | 34.96119 | -80.83255 | 16645 ft | 352 kts | 192° |
| 2026-04-26 01:24 | 34.93681 | -80.83696 | 17167 ft | 357 kts | 192° |
| 2026-04-26 01:24 | 34.91212 | -80.84139 | 17689 ft | 361 kts | 192° |
| 2026-04-26 01:25 | 34.88714 | -80.84592 | 18173 ft | 366 kts | 192° |
| 2026-04-26 01:25 | 34.86176 | -80.85049 | 18571 ft | 372 kts | 192° |
| 2026-04-26 01:25 | 34.83649 | -80.85509 | 18763 ft | 383 kts | 192° |
| 2026-04-26 01:25 | 34.80958 | -80.85994 | 18860 ft | 397 kts | 192° |
| 2026-04-26 01:26 | 34.78142 | -80.86143 | 18907 ft | 416 kts | 178° |
| 2026-04-26 01:26 | 34.75239 | -80.85655 | 18934 ft | 426 kts | 174° |
| 2026-04-26 01:26 | 34.72272 | -80.85086 | 18944 ft | 434 kts | 175° |
| 2026-04-26 01:26 | 34.69254 | -80.84606 | 18948 ft | 441 kts | 177° |
| 2026-04-26 01:27 | 34.66198 | -80.84261 | 18948 ft | 441 kts | 179° |
| 2026-04-26 01:27 | 34.63131 | -80.84019 | 18942 ft | 442 kts | 180° |
| 2026-04-26 01:27 | 34.60051 | -80.83786 | 18941 ft | 443 kts | 180° |
| 2026-04-26 01:27 | 34.56981 | -80.83544 | 18939 ft | 443 kts | 180° |
| 2026-04-26 01:28 | 34.53981 | -80.83288 | 18933 ft | 442 kts | 179° |
| 2026-04-26 01:28 | 34.50917 | -80.83012 | 18928 ft | 441 kts | 179° |
| 2026-04-26 01:28 | 34.47852 | -80.82737 | 18919 ft | 441 kts | 179° |
| 2026-04-26 01:28 | 34.44801 | -80.82461 | 18912 ft | 440 kts | 179° |
| 2026-04-26 01:29 | 34.41782 | -80.82185 | 18911 ft | 440 kts | 179° |
| 2026-04-26 01:29 | 34.38727 | -80.81907 | 18894 ft | 439 kts | 179° |
| 2026-04-26 01:29 | 34.35674 | -80.81634 | 18896 ft | 439 kts | 179° |
| 2026-04-26 01:29 | 34.32635 | -80.81360 | 18897 ft | 439 kts | 179° |
| 2026-04-26 01:30 | 34.29587 | -80.81080 | 18900 ft | 438 kts | 179° |
| 2026-04-26 01:30 | 34.26659 | -80.80384 | 18893 ft | 445 kts | 161° |
| 2026-04-26 01:30 | 34.24012 | -80.78428 | 18896 ft | 452 kts | 140° |
| 2026-04-26 01:30 | 34.22027 | -80.75479 | 18881 ft | 455 kts | 123° |
| 2026-04-26 01:31 | 34.20471 | -80.72141 | 18885 ft | 456 kts | 118° |
| 2026-04-26 01:31 | 34.19270 | -80.68627 | 18883 ft | 457 kts | 106° |
| 2026-04-26 01:31 | 34.18647 | -80.64985 | 18885 ft | 458 kts | 99° |
| 2026-04-26 01:31 | 34.18142 | -80.61184 | 18918 ft | 458 kts | 99° |
| 2026-04-26 01:32 | 34.17604 | -80.57395 | 18916 ft | 458 kts | 101° |
| 2026-04-26 01:32 | 34.16956 | -80.53632 | 18914 ft | 458 kts | 103° |
| 2026-04-26 01:32 | 34.16267 | -80.49873 | 18911 ft | 458 kts | 103° |
| 2026-04-26 01:32 | 34.15583 | -80.46111 | 18904 ft | 458 kts | 103° |
| 2026-04-26 01:33 | 34.14914 | -80.42349 | 18912 ft | 458 kts | 103° |
| 2026-04-26 01:33 | 34.14244 | -80.38592 | 18911 ft | 458 kts | 103° |
| 2026-04-26 01:33 | 34.13586 | -80.34836 | 18913 ft | 457 kts | 103° |
| 2026-04-26 01:33 | 34.12960 | -80.31226 | 18910 ft | 456 kts | 103° |
| 2026-04-26 01:34 | 34.12315 | -80.27490 | 18668 ft | 451 kts | 103° |
| 2026-04-26 01:34 | 34.11682 | -80.23804 | 18390 ft | 446 kts | 103° |
| 2026-04-26 01:34 | 34.11060 | -80.20151 | 18090 ft | 443 kts | 103° |
| 2026-04-26 01:34 | 34.10446 | -80.16534 | 17772 ft | 437 kts | 103° |
| 2026-04-26 01:35 | 34.09853 | -80.12966 | 17451 ft | 430 kts | 103° |
| 2026-04-26 01:35 | 34.09277 | -80.09455 | 17132 ft | 424 kts | 103° |
| 2026-04-26 01:35 | 34.08903 | -80.07147 | 16920 ft | 421 kts | 102° |
| 2026-04-26 01:35 | 34.08165 | -80.02582 | 16510 ft | 415 kts | 102° |
| 2026-04-26 01:36 | 34.07621 | -79.99178 | 16144 ft | 412 kts | 102° |
| 2026-04-26 01:36 | 34.07104 | -79.95931 | 15790 ft | 407 kts | 102° |
| 2026-04-26 01:36 | 34.06575 | -79.92596 | 15417 ft | 404 kts | 102° |
| 2026-04-26 01:37 | 34.05722 | -79.87155 | 14740 ft | 390 kts | 102° |
| 2026-04-26 01:37 | 34.05226 | -79.83970 | 14331 ft | 383 kts | 102° |
| 2026-04-26 01:37 | 34.04743 | -79.80844 | 13926 ft | 376 kts | 102° |
| 2026-04-26 01:37 | 34.04269 | -79.77780 | 13508 ft | 365 kts | 102° |
| 2026-04-26 01:38 | 34.03807 | -79.74841 | 13054 ft | 349 kts | 102° |
| 2026-04-26 01:38 | 34.03362 | -79.72018 | 12594 ft | 337 kts | 102° |
| 2026-04-26 01:38 | 34.02935 | -79.69287 | 12198 ft | 325 kts | 102° |
| 2026-04-26 01:38 | 34.02524 | -79.66651 | 11790 ft | 315 kts | 102° |
| 2026-04-26 01:39 | 34.02122 | -79.64075 | 11421 ft | 312 kts | 102° |
| 2026-04-26 01:39 | 34.01743 | -79.61631 | 11074 ft | 312 kts | 102° |
| 2026-04-26 01:39 | 34.01346 | -79.59060 | 10715 ft | 312 kts | 102° |
| 2026-04-26 01:39 | 34.00948 | -79.56495 | 10364 ft | 311 kts | 102° |
| 2026-04-26 01:40 | 34.00551 | -79.53937 | 10021 ft | 310 kts | 102° |
| 2026-04-26 01:40 | 34.00156 | -79.51392 | 9655 ft | 305 kts | 102° |
| 2026-04-26 01:40 | 33.99775 | -79.48916 | 9254 ft | 296 kts | 102° |
| 2026-04-26 01:40 | 33.99404 | -79.46509 | 8863 ft | 290 kts | 102° |
| 2026-04-26 01:41 | 33.99040 | -79.44108 | 8475 ft | 292 kts | 102° |
| 2026-04-26 01:41 | 33.98737 | -79.41755 | 8101 ft | 293 kts | 93° |
| 2026-04-26 01:41 | 33.98808 | -79.39295 | 7731 ft | 294 kts | 87° |
| 2026-04-26 01:41 | 33.98963 | -79.36910 | 7383 ft | 294 kts | 86° |
| 2026-04-26 01:42 | 33.99144 | -79.34457 | 7049 ft | 294 kts | 85° |
| 2026-04-26 01:42 | 33.99337 | -79.32010 | 6684 ft | 292 kts | 85° |
| 2026-04-26 01:42 | 33.99538 | -79.29578 | 6333 ft | 290 kts | 85° |
| 2026-04-26 01:42 | 33.99732 | -79.27270 | 5976 ft | 289 kts | 85° |
| 2026-04-26 01:43 | 33.99924 | -79.24932 | 5601 ft | 287 kts | 85° |
| 2026-04-26 01:43 | 34.00120 | -79.22547 | 5233 ft | 285 kts | 85° |
| 2026-04-26 01:43 | 34.00039 | -79.20191 | 4866 ft | 280 kts | 110° |
| 2026-04-26 01:43 | 33.99127 | -79.18159 | 4513 ft | 274 kts | 127° |
| 2026-04-26 01:44 | 33.98090 | -79.16307 | 4165 ft | 274 kts | 127° |
| 2026-04-26 01:44 | 33.96993 | -79.14430 | 3804 ft | 274 kts | 129° |
| 2026-04-26 01:44 | 33.95875 | -79.12580 | 3457 ft | 273 kts | 130° |
| 2026-04-26 01:44 | 33.94752 | -79.10745 | 3100 ft | 273 kts | 130° |
| 2026-04-26 01:45 | 33.93624 | -79.08911 | 2762 ft | 272 kts | 130° |
| 2026-04-26 01:45 | 33.92496 | -79.07087 | 2406 ft | 271 kts | 129° |
| 2026-04-26 01:45 | 33.91400 | -79.05261 | 2195 ft | 266 kts | 129° |
| 2026-04-26 01:45 | 33.90364 | -79.03474 | 2103 ft | 255 kts | 128° |
| 2026-04-26 01:46 | 33.89392 | -79.01753 | 2075 ft | 243 kts | 129° |
| 2026-04-26 01:46 | 33.88449 | -79.00138 | 2134 ft | 229 kts | 131° |
| 2026-04-26 01:46 | 33.87550 | -78.98585 | 2104 ft | 222 kts | 129° |
| 2026-04-26 01:46 | 33.86441 | -78.97484 | 2122 ft | 194 kts | 163° |
| 2026-04-26 01:47 | 33.85215 | -78.97018 | 2116 ft | 177 kts | 171° |
| 2026-04-26 01:47 | 33.84028 | -78.96718 | 2042 ft | 172 kts | 174° |
| 2026-04-26 01:47 | 33.82856 | -78.96468 | 2089 ft | 172 kts | 176° |
| 2026-04-26 01:47 | 33.81667 | -78.96201 | 2125 ft | 178 kts | 173° |
| 2026-04-26 01:48 | 33.80425 | -78.95923 | 2158 ft | 185 kts | 176° |
| 2026-04-26 01:48 | 33.79160 | -78.95692 | 2154 ft | 186 kts | 175° |
| 2026-04-26 01:48 | 33.77934 | -78.95372 | 2172 ft | 171 kts | 171° |
| 2026-04-26 01:48 | 33.76860 | -78.95012 | 2126 ft | 149 kts | 172° |
| 2026-04-26 01:49 | 33.75928 | -78.94763 | 2093 ft | 131 kts | 175° |
| 2026-04-26 01:49 | 33.75084 | -78.94616 | 2009 ft | 118 kts | 178° |
| 2026-04-26 01:49 | 33.74241 | -78.94428 | 1565 ft | 125 kts | 175° |
| 2026-04-26 01:49 | 33.73388 | -78.94222 | 1164 ft | 126 kts | 174° |
| 2026-04-26 01:50 | 33.72507 | -78.93992 | 885 ft | 134 kts | 171° |
| 2026-04-26 01:50 | 33.71590 | -78.93741 | 688 ft | 136 kts | 169° |
| 2026-04-26 01:50 | 33.70670 | -78.93484 | 431 ft | 136 kts | 171° |
| 2026-04-26 01:50 | 33.69717 | -78.93280 | 220 ft | 140 kts | 171° |
| 2026-04-26 01:51 | 33.68819 | -78.93041 | 42 ft | 125 kts | 171° |
| 2026-04-26 01:51 | 33.68110 | -78.92868 | 29 ft | 89 kts | 165° |
| 2026-04-26 01:51 | 33.67623 | -78.92751 | 30 ft | 54 kts | 168° |
| 2026-04-26 01:51 | 33.67336 | -78.92681 | 30 ft | 25 kts | 156° |
| 2026-04-26 01:52 | 33.67306 | -78.92559 | 30 ft | 13 kts | 79° |
| 2026-04-26 01:52 | 33.67366 | -78.92479 | 30 ft | 16 kts | 355° |
| 2026-04-26 01:52 | 33.67489 | -78.92510 | 30 ft | 20 kts | 348° |
| 2026-04-26 01:52 | 33.67638 | -78.92548 | 30 ft | 24 kts | 349° |
| 2026-04-26 01:53 | 33.67803 | -78.92585 | 30 ft | 20 kts | 349° |
| 2026-04-26 01:53 | 33.67879 | -78.92551 | 30 ft | 12 kts | 70° |
| 2026-04-26 01:53 | 33.67893 | -78.92457 | 30 ft | 10 kts | 78° |
| 2026-04-26 01:53 | 33.67919 | -78.92376 | 30 ft | 10 kts | 30° |
| 2026-04-26 01:54 | 33.67979 | -78.92384 | 30 ft | 6 kts | 347° |
| 2026-04-26 01:54 | 33.67982 | -78.92384 | 30 ft | 0 kts | 352° |